Time;durP1;ratioP1;P1;durP2;ratioP2;P2;SDS_P1;SDS_P2;PMS_P1;PMS_P2;Temp;Humidity;BMP_temperature;BMP_pressure;BME280_temperature;BME280_humidity;BME280_pressure;Samples;Min_cycle;Max_cycle;Signal;HPM_P1;HPM_P2
2021/01/23 00:00:28;;;;;;;0.60;0.60;;;;;;;;;;5054328;28;20486;-65
2021/01/23 00:02:54;;;;;;;0.75;0.75;;;;;;;;;;5053390;28;20218;-65
2021/01/23 00:05:20;;;;;;;0.60;0.60;;;;;;;;;;5054611;28;20175;-64
2021/01/23 00:07:46;;;;;;;0.70;0.70;;;;;;;;;;5054391;28;20491;-65
2021/01/23 00:10:13;;;;;;;0.60;0.60;;;;;;;;;;5053863;28;20175;-65
2021/01/23 00:12:39;;;;;;;0.55;0.55;;;;;;;;;;5054046;28;20430;-65
2021/01/23 00:15:05;;;;;;;0.55;0.55;;;;;;;;;;5054077;28;20226;-63
2021/01/23 00:17:31;;;;;;;0.75;0.75;;;;;;;;;;5053772;28;20207;-64
2021/01/23 00:19:57;;;;;;;0.50;0.50;;;;;;;;;;5053976;28;20195;-64
2021/01/23 00:22:23;;;;;;;0.70;0.70;;;;;;;;;;5053968;28;20226;-65
2021/01/23 00:24:49;;;;;;;0.90;0.90;;;;;;;;;;5053701;28;20430;-64
2021/01/23 00:27:15;;;;;;;0.50;0.50;;;;;;;;;;5053772;28;20172;-64
2021/01/23 00:29:41;;;;;;;0.75;0.75;;;;;;;;;;5052422;28;20179;-64
2021/01/23 00:32:07;;;;;;;0.50;0.50;;;;;;;;;;5053788;28;20188;-64
2021/01/23 00:34:33;;;;;;;0.73;0.73;;;;;;;;;;5053726;28;20647;-64
2021/01/23 00:36:59;;;;;;;0.50;0.50;;;;;;;;;;5053744;28;20222;-63
2021/01/23 00:39:25;;;;;;;0.50;0.50;;;;;;;;;;5052772;28;20682;-65
2021/01/23 00:41:51;;;;;;;0.70;0.70;;;;;;;;;;5053332;28;20411;-64
2021/01/23 00:44:17;;;;;;;0.40;0.40;;;;;;;;;;5052207;28;20839;-64
2021/01/23 00:46:43;;;;;;;0.50;0.50;;;;;;;;;;5051848;28;20487;-63
2021/01/23 00:49:09;;;;;;;0.80;0.80;;;;;;;;;;5051996;28;20845;-63
2021/01/23 00:51:35;;;;;;;0.60;0.60;;;;;;;;;;5052805;28;20430;-64
2021/01/23 00:54:01;;;;;;;0.50;0.50;;;;;;;;;;5052947;28;20252;-64
2021/01/23 00:56:27;;;;;;;0.70;0.70;;;;;;;;;;5053156;28;20263;-64
2021/01/23 00:58:53;;;;;;;1.25;0.90;;;;;;;;;;5052864;28;20913;-65
2021/01/23 01:01:19;;;;;;;0.60;0.60;;;;;;;;;;5052668;28;20393;-64
2021/01/23 01:03:45;;;;;;;0.93;0.93;;;;;;;;;;5052148;28;20812;-62
2021/01/23 01:06:11;;;;;;;0.98;0.98;;;;;;;;;;5052533;28;20168;-64
2021/01/23 01:08:37;;;;;;;0.80;0.80;;;;;;;;;;5052824;28;20264;-64
2021/01/23 01:11:03;;;;;;;1.00;1.00;;;;;;;;;;5052660;28;20172;-64
2021/01/23 01:13:29;;;;;;;0.88;0.88;;;;;;;;;;5053161;28;20192;-65
2021/01/23 01:15:55;;;;;;;0.45;0.45;;;;;;;;;;5052914;28;20174;-64
2021/01/23 01:18:21;;;;;;;0.50;0.50;;;;;;;;;;5052947;28;20207;-65
2021/01/23 01:20:47;;;;;;;0.55;0.55;;;;;;;;;;5052556;28;20402;-64
2021/01/23 01:23:13;;;;;;;0.50;0.50;;;;;;;;;;5051677;28;20690;-64
2021/01/23 01:25:39;;;;;;;0.60;0.60;;;;;;;;;;5052616;28;20179;-64
2021/01/23 01:28:05;;;;;;;0.80;0.80;;;;;;;;;;5052830;28;20411;-63
2021/01/23 01:30:31;;;;;;;0.95;0.95;;;;;;;;;;5052244;28;20195;-64
2021/01/23 01:32:57;;;;;;;0.60;0.60;;;;;;;;;;5051499;28;20204;-64
2021/01/23 01:35:23;;;;;;;0.70;0.70;;;;;;;;;;5051402;28;20164;-65
2021/01/23 01:37:49;;;;;;;1.73;1.63;;;;;;;;;;5051221;28;20733;-65
2021/01/23 01:40:15;;;;;;;1.52;1.42;;;;;;;;;;5051845;28;20436;-65
2021/01/23 01:42:41;;;;;;;0.80;0.80;;;;;;;;;;5051941;28;20283;-64
2021/01/23 01:45:07;;;;;;;0.68;0.68;;;;;;;;;;5052132;28;20183;-65
2021/01/23 01:47:34;;;;;;;0.90;0.90;;;;;;;;;;5052207;28;20172;-65
2021/01/23 01:50:00;;;;;;;1.05;1.05;;;;;;;;;;5051649;28;20233;-64
2021/01/23 01:52:26;;;;;;;0.60;0.60;;;;;;;;;;5050471;28;20203;-65
2021/01/23 01:54:52;;;;;;;1.05;1.05;;;;;;;;;;5040873;28;20198;-65
2021/01/23 01:57:21;;;;;;;0.50;0.50;;;;;;;;;;5040510;28;20177;-64
2021/01/23 01:59:48;;;;;;;0.50;0.50;;;;;;;;;;5039110;28;20168;-64
2021/01/23 02:02:23;;;;;;;0.60;0.60;;;;;;;;;;5043267;28;20283;-65
2021/01/23 02:04:58;;;;;;;0.98;0.98;;;;;;;;;;5042225;28;20172;-65
2021/01/23 02:07:27;;;;;;;0.45;0.45;;;;;;;;;;5039270;28;20190;-65
2021/01/23 02:10:01;;;;;;;0.60;0.60;;;;;;;;;;5040198;28;20186;-65
2021/01/23 02:12:33;;;;;;;0.60;0.60;;;;;;;;;;5039874;28;20197;-65
2021/01/23 02:14:59;;;;;;;0.50;0.50;;;;;;;;;;5040168;28;20171;-64
2021/01/23 02:17:29;;;;;;;0.60;0.60;;;;;;;;;;5043515;28;20180;-65
2021/01/23 02:20:01;;;;;;;0.60;0.60;;;;;;;;;;5051156;28;20431;-65
2021/01/23 02:22:33;;;;;;;1.08;1.05;;;;;;;;;;5051336;28;20235;-65
2021/01/23 02:24:59;;;;;;;0.90;0.90;;;;;;;;;;5051071;28;20651;-65
2021/01/23 02:27:45;;;;;;;0.60;0.60;;;;;;;;;;5051479;28;20623;-64
2021/01/23 02:30:18;;;;;;;1.08;1.08;;;;;;;;;;5031742;28;20188;-64
2021/01/23 02:32:44;;;;;;;0.50;0.50;;;;;;;;;;5050961;28;20199;-64
2021/01/23 02:35:12;;;;;;;0.40;0.40;;;;;;;;;;5051194;28;20259;-64
2021/01/23 02:37:40;;;;;;;0.70;0.70;;;;;;;;;;5049569;28;20199;-64
2021/01/23 02:40:06;;;;;;;0.60;0.60;;;;;;;;;;5051385;28;20259;-64
2021/01/23 02:42:32;;;;;;;0.73;0.73;;;;;;;;;;5051064;28;20635;-64
2021/01/23 02:44:58;;;;;;;0.50;0.50;;;;;;;;;;5051475;28;20175;-65
2021/01/23 02:47:25;;;;;;;0.50;0.50;;;;;;;;;;5050983;28;20176;-62
2021/01/23 02:49:51;;;;;;;1.40;1.02;;;;;;;;;;5050882;28;20410;-64
2021/01/23 02:52:20;;;;;;;0.50;0.50;;;;;;;;;;5050826;28;20194;-64
2021/01/23 02:55:15;;;;;;;0.40;0.40;;;;;;;;;;5054799;28;20229;-65
2021/01/23 02:57:42;;;;;;;0.40;0.40;;;;;;;;;;5038182;28;20211;-65
2021/01/23 03:00:09;;;;;;;0.63;0.63;;;;;;;;;;5055206;28;20671;-65
2021/01/23 03:02:36;;;;;;;0.40;0.40;;;;;;;;;;5055221;28;20200;-64
2021/01/23 03:05:03;;;;;;;0.40;0.40;;;;;;;;;;5055183;28;20176;-64
2021/01/23 03:07:29;;;;;;;0.40;0.40;;;;;;;;;;5055277;28;20579;-65
2021/01/23 03:09:55;;;;;;;0.95;0.95;;;;;;;;;;5055024;28;20536;-65
2021/01/23 03:12:21;;;;;;;0.50;0.50;;;;;;;;;;5055237;28;20694;-65
2021/01/23 03:14:47;;;;;;;0.50;0.50;;;;;;;;;;5055180;28;20173;-65
2021/01/23 03:17:13;;;;;;;0.60;0.60;;;;;;;;;;5055134;28;20376;-64
2021/01/23 03:19:39;;;;;;;0.57;0.57;;;;;;;;;;5054531;28;20212;-65
2021/01/23 03:22:05;;;;;;;0.50;0.50;;;;;;;;;;5054441;28;20821;-64
2021/01/23 03:24:31;;;;;;;0.60;0.60;;;;;;;;;;5055062;28;20200;-64
2021/01/23 03:26:57;;;;;;;0.60;0.60;;;;;;;;;;5055239;28;20258;-65
2021/01/23 03:29:23;;;;;;;0.70;0.70;;;;;;;;;;5054748;28;20604;-64
2021/01/23 03:31:50;;;;;;;1.02;1.02;;;;;;;;;;5054408;28;20229;-64
2021/01/23 03:34:16;;;;;;;3.13;1.55;;;;;;;;;;5047923;28;20213;-65
2021/01/23 03:36:42;;;;;;;1.48;1.48;;;;;;;;;;5054460;28;20538;-65
2021/01/23 03:39:09;;;;;;;0.50;0.50;;;;;;;;;;5054440;28;20286;-64
2021/01/23 03:41:35;;;;;;;0.50;0.50;;;;;;;;;;5054441;28;20179;-64
2021/01/23 03:44:02;;;;;;;0.50;0.50;;;;;;;;;;5054498;28;20184;-65
2021/01/23 03:46:27;;;;;;;0.52;0.52;;;;;;;;;;5054121;28;20647;-64
2021/01/23 03:48:54;;;;;;;0.50;0.50;;;;;;;;;;5053910;28;20168;-64
2021/01/23 03:51:20;;;;;;;0.50;0.50;;;;;;;;;;5054318;28;20180;-64
2021/01/23 03:53:46;;;;;;;0.70;0.70;;;;;;;;;;5054087;28;20663;-64
2021/01/23 03:56:12;;;;;;;0.50;0.50;;;;;;;;;;5054597;28;20555;-64
2021/01/23 03:58:38;;;;;;;2.33;1.80;;;;;;;;;;5054202;28;20200;-64
2021/01/23 04:01:04;;;;;;;0.50;0.50;;;;;;;;;;5053550;28;20419;-62
2021/01/23 04:03:30;;;;;;;0.50;0.50;;;;;;;;;;5053806;28;20438;-65
2021/01/23 04:05:56;;;;;;;0.40;0.40;;;;;;;;;;5053648;28;20539;-64
2021/01/23 04:08:22;;;;;;;0.40;0.40;;;;;;;;;;5054033;28;20179;-64
2021/01/23 04:10:48;;;;;;;0.50;0.50;;;;;;;;;;5053580;28;20496;-64
2021/01/23 04:13:14;;;;;;;0.50;0.50;;;;;;;;;;5054001;28;20444;-65
2021/01/23 04:15:40;;;;;;;0.95;0.95;;;;;;;;;;5053780;28;20589;-65
2021/01/23 04:18:06;;;;;;;0.50;0.50;;;;;;;;;;5053401;28;20212;-65
2021/01/23 04:20:33;;;;;;;0.50;0.50;;;;;;;;;;5053385;28;20674;-64
2021/01/23 04:22:59;;;;;;;0.50;0.50;;;;;;;;;;5054491;28;20659;-64
2021/01/23 04:25:25;;;;;;;0.50;0.50;;;;;;;;;;5053467;28;20179;-64
2021/01/23 04:27:51;;;;;;;0.50;0.50;;;;;;;;;;5053221;28;20656;-63
2021/01/23 04:30:17;;;;;;;0.50;0.50;;;;;;;;;;5053280;28;20180;-63
2021/01/23 04:32:43;;;;;;;0.90;0.90;;;;;;;;;;5052634;28;20699;-65
2021/01/23 04:35:10;;;;;;;0.50;0.50;;;;;;;;;;5053374;28;20268;-65
2021/01/23 04:37:37;;;;;;;0.68;0.68;;;;;;;;;;5053640;28;20176;-65
2021/01/23 04:40:04;;;;;;;0.45;0.45;;;;;;;;;;5053158;28;20667;-64
2021/01/23 04:42:30;;;;;;;1.55;1.33;;;;;;;;;;5053489;28;20192;-65
2021/01/23 04:44:56;;;;;;;0.60;0.60;;;;;;;;;;5052872;28;20183;-65
2021/01/23 04:47:22;;;;;;;0.40;0.40;;;;;;;;;;5053272;28;20211;-65
2021/01/23 04:49:48;;;;;;;0.50;0.50;;;;;;;;;;5052868;28;20175;-65
2021/01/23 04:52:14;;;;;;;0.50;0.50;;;;;;;;;;5053098;28;20196;-65
2021/01/23 04:54:42;;;;;;;0.50;0.50;;;;;;;;;;5053035;28;20176;-65
2021/01/23 04:57:08;;;;;;;0.50;0.50;;;;;;;;;;5051548;28;20172;-64
2021/01/23 04:59:34;;;;;;;0.60;0.60;;;;;;;;;;5052673;28;20721;-65
2021/01/23 05:02:16;;;;;;;0.40;0.40;;;;;;;;;;5052323;28;20187;-65
2021/01/23 05:04:45;;;;;;;0.80;0.80;;;;;;;;;;5053196;28;20184;-64
2021/01/23 05:07:12;;;;;;;0.50;0.50;;;;;;;;;;5052736;28;20199;-64
2021/01/23 05:09:38;;;;;;;0.80;0.80;;;;;;;;;;5052815;28;20202;-64
2021/01/23 05:12:04;;;;;;;0.63;0.63;;;;;;;;;;5052352;28;20336;-64
2021/01/23 05:14:30;;;;;;;0.75;0.70;;;;;;;;;;5052861;28;20594;-65
2021/01/23 05:17:03;;;;;;;0.60;0.60;;;;;;;;;;5052223;28;20182;-65
2021/01/23 05:19:42;;;;;;;0.50;0.50;;;;;;;;;;5052346;28;20218;-64
2021/01/23 05:22:08;;;;;;;0.70;0.70;;;;;;;;;;5052275;28;20579;-65
2021/01/23 05:24:53;;;;;;;0.60;0.60;;;;;;;;;;5052383;28;20176;-64
2021/01/23 05:27:19;;;;;;;0.70;0.70;;;;;;;;;;5052290;28;20238;-64
2021/01/23 05:29:59;;;;;;;0.50;0.50;;;;;;;;;;5052477;28;20180;-65
2021/01/23 05:32:25;;;;;;;0.73;0.73;;;;;;;;;;5051629;28;20256;-64
2021/01/23 05:34:51;;;;;;;0.75;0.70;;;;;;;;;;5052543;28;20168;-64
2021/01/23 05:37:30;;;;;;;0.63;0.63;;;;;;;;;;5051839;28;20762;-63
2021/01/23 05:39:56;;;;;;;1.60;1.50;;;;;;;;;;5051920;28;20196;-65
2021/01/23 05:42:22;;;;;;;0.50;0.50;;;;;;;;;;5052356;28;20634;-65
2021/01/23 05:45:04;;;;;;;0.60;0.60;;;;;;;;;;5052202;28;20171;-65
2021/01/23 05:47:30;;;;;;;2.28;2.15;;;;;;;;;;5052375;28;20383;-65
2021/01/23 05:49:56;;;;;;;0.85;0.85;;;;;;;;;;5051635;28;20217;-65
2021/01/23 05:52:22;;;;;;;0.60;0.60;;;;;;;;;;5051871;28;20200;-65
2021/01/23 05:54:48;;;;;;;0.80;0.80;;;;;;;;;;5051970;28;20406;-65
2021/01/23 05:57:15;;;;;;;0.50;0.50;;;;;;;;;;5052214;28;20183;-65
2021/01/23 05:59:41;;;;;;;0.88;0.88;;;;;;;;;;5051818;28;20606;-65
2021/01/23 06:02:11;;;;;;;0.60;0.60;;;;;;;;;;5052074;28;20188;-65
2021/01/23 06:04:40;;;;;;;0.60;0.60;;;;;;;;;;5051828;28;20209;-65
2021/01/23 06:07:06;;;;;;;0.60;0.60;;;;;;;;;;5051780;28;20175;-65
2021/01/23 06:09:33;;;;;;;0.60;0.60;;;;;;;;;;5051114;28;20245;-64
2021/01/23 06:11:59;;;;;;;0.60;0.60;;;;;;;;;;5052031;28;20180;-65
2021/01/23 06:14:38;;;;;;;0.70;0.70;;;;;;;;;;5051812;28;20183;-65
2021/01/23 06:17:04;;;;;;;2.90;1.45;;;;;;;;;;5051597;28;20183;-65
2021/01/23 06:19:30;;;;;;;0.50;0.50;;;;;;;;;;5051454;28;20199;-65
2021/01/23 06:21:56;;;;;;;1.20;1.20;;;;;;;;;;5051203;28;20873;-65
2021/01/23 06:24:31;;;;;;;0.55;0.55;;;;;;;;;;5051819;28;20821;-64
2021/01/23 06:27:00;;;;;;;0.65;0.65;;;;;;;;;;5050896;28;20207;-64
2021/01/23 06:29:40;;;;;;;0.60;0.60;;;;;;;;;;5050627;28;20188;-64
2021/01/23 06:32:14;;;;;;;0.60;0.60;;;;;;;;;;5051364;28;20204;-65
2021/01/23 06:34:47;;;;;;;0.52;0.52;;;;;;;;;;5051333;28;20245;-63
2021/01/23 06:37:28;;;;;;;0.85;0.85;;;;;;;;;;5050644;28;20183;-66
2021/01/23 06:39:57;;;;;;;0.50;0.50;;;;;;;;;;5050835;28;20187;-66
2021/01/23 06:42:23;;;;;;;0.93;0.88;;;;;;;;;;5051387;28;20231;-65
2021/01/23 06:44:49;;;;;;;0.60;0.60;;;;;;;;;;5051197;28;20724;-65
2021/01/23 06:47:15;;;;;;;0.73;0.73;;;;;;;;;;5051511;28;20168;-66
2021/01/23 06:49:42;;;;;;;0.53;0.53;;;;;;;;;;5035757;28;20244;-66
2021/01/23 06:52:08;;;;;;;0.50;0.50;;;;;;;;;;5050898;28;20453;-65
2021/01/23 06:54:34;;;;;;;0.60;0.60;;;;;;;;;;5051083;28;20211;-65
2021/01/23 06:57:02;;;;;;;0.70;0.70;;;;;;;;;;5051338;28;20194;-65
2021/01/23 06:59:30;;;;;;;0.88;0.88;;;;;;;;;;5051245;28;20258;-65
2021/01/23 07:01:57;;;;;;;0.50;0.50;;;;;;;;;;5049791;28;20186;-66
2021/01/23 07:04:23;;;;;;;1.10;1.00;;;;;;;;;;5050981;28;20172;-65
2021/01/23 07:06:49;;;;;;;1.92;1.83;;;;;;;;;;5031580;28;20180;-65
2021/01/23 07:09:15;;;;;;;0.70;0.70;;;;;;;;;;5031290;28;20268;-65
2021/01/23 07:11:41;;;;;;;1.33;1.17;;;;;;;;;;5050441;28;20648;-64
2021/01/23 07:14:07;;;;;;;0.50;0.50;;;;;;;;;;5049812;28;20231;-65
2021/01/23 07:16:34;;;;;;;0.95;0.95;;;;;;;;;;5051071;28;20766;-65
2021/01/23 07:19:05;;;;;;;0.50;0.50;;;;;;;;;;5050905;28;20226;-65
2021/01/23 07:21:41;;;;;;;0.70;0.70;;;;;;;;;;5051349;28;20693;-65
2021/01/23 07:24:10;;;;;;;1.00;1.00;;;;;;;;;;5031458;28;20204;-65
2021/01/23 07:26:36;;;;;;;2.03;1.17;;;;;;;;;;5050990;28;20187;-65
2021/01/23 07:29:02;;;;;;;0.95;0.80;;;;;;;;;;5051435;28;20168;-65
2021/01/23 07:31:29;;;;;;;1.00;1.00;;;;;;;;;;5050899;28;20244;-65
2021/01/23 07:33:56;;;;;;;0.50;0.50;;;;;;;;;;5050679;28;20199;-65
2021/01/23 07:36:32;;;;;;;0.85;0.65;;;;;;;;;;5051147;28;20200;-65
2021/01/23 07:38:58;;;;;;;0.80;0.80;;;;;;;;;;5051089;28;20214;-65
2021/01/23 07:41:28;;;;;;;1.25;1.15;;;;;;;;;;5053752;28;20226;-65
2021/01/23 07:43:54;;;;;;;1.02;1.02;;;;;;;;;;5053574;28;20277;-65
2021/01/23 07:46:20;;;;;;;0.60;0.60;;;;;;;;;;5053999;28;20172;-65
2021/01/23 07:48:46;;;;;;;0.63;0.63;;;;;;;;;;5053375;28;20203;-65
2021/01/23 07:51:22;;;;;;;0.70;0.70;;;;;;;;;;5053853;28;20175;-65
2021/01/23 07:54:07;;;;;;;0.50;0.50;;;;;;;;;;5053569;28;20290;-64
2021/01/23 07:56:33;;;;;;;1.02;1.02;;;;;;;;;;5054171;28;20178;-65
2021/01/23 07:59:00;;;;;;;0.70;0.70;;;;;;;;;;5053359;28;20214;-65
2021/01/23 08:01:26;;;;;;;1.50;1.13;;;;;;;;;;5053411;28;20183;-65
2021/01/23 08:03:53;;;;;;;0.68;0.68;;;;;;;;;;5053279;28;20187;-65
2021/01/23 08:06:20;;;;;;;0.63;0.63;;;;;;;;;;5053643;28;20202;-65
2021/01/23 08:08:47;;;;;;;0.60;0.60;;;;;;;;;;5053958;28;20651;-65
2021/01/23 08:11:33;;;;;;;0.50;0.50;;;;;;;;;;5053167;28;20176;-65
2021/01/23 08:14:09;;;;;;;0.85;0.85;;;;;;;;;;5053946;28;20738;-65
2021/01/23 08:16:34;;;;;;;1.55;1.55;;;;;;;;;;5053632;28;20186;-65
2021/01/23 08:19:07;;;;;;;0.50;0.50;;;;;;;;;;5052985;28;20698;-65
2021/01/23 08:21:33;;;;;;;1.55;1.27;;;;;;;;;;5053403;28;20513;-64
2021/01/23 08:24:00;;;;;;;1.13;1.13;;;;;;;;;;5053026;28;20340;-64
2021/01/23 08:26:39;;;;;;;0.75;0.75;;;;;;;;;;5053583;28;20186;-65
2021/01/23 08:29:05;;;;;;;0.80;0.80;;;;;;;;;;5053281;28;20222;-65
2021/01/23 08:31:31;;;;;;;0.60;0.60;;;;;;;;;;5052721;28;20180;-65
2021/01/23 08:33:57;;;;;;;0.80;0.80;;;;;;;;;;5053224;28;20291;-65
2021/01/23 08:36:24;;;;;;;0.50;0.50;;;;;;;;;;5053089;28;20263;-65
2021/01/23 08:38:57;;;;;;;0.60;0.60;;;;;;;;;;5053226;28;20269;-65
2021/01/23 08:41:23;;;;;;;0.60;0.60;;;;;;;;;;5051259;28;20203;-66
2021/01/23 08:43:49;;;;;;;0.90;0.90;;;;;;;;;;5050575;28;20192;-65
2021/01/23 08:46:15;;;;;;;0.80;0.80;;;;;;;;;;5049768;28;20187;-65
2021/01/23 08:48:41;;;;;;;1.13;1.13;;;;;;;;;;5048515;28;20196;-65
2021/01/23 08:51:07;;;;;;;0.60;0.60;;;;;;;;;;5048775;28;20926;-65
2021/01/23 08:53:34;;;;;;;0.83;0.83;;;;;;;;;;5049299;28;20450;-65
2021/01/23 08:56:00;;;;;;;1.70;1.60;;;;;;;;;;5049108;28;20510;-65
2021/01/23 08:58:26;;;;;;;0.73;0.73;;;;;;;;;;5049356;28;20302;-65
2021/01/23 09:00:52;;;;;;;0.50;0.50;;;;;;;;;;5049568;28;20426;-65
2021/01/23 09:03:18;;;;;;;0.85;0.85;;;;;;;;;;5050664;28;20195;-66
2021/01/23 09:05:44;;;;;;;1.95;1.55;;;;;;;;;;5051215;28;20211;-66
2021/01/23 09:08:10;;;;;;;0.60;0.60;;;;;;;;;;5051686;28;20211;-65
2021/01/23 09:10:36;;;;;;;0.77;0.77;;;;;;;;;;5049866;28;20215;-66
2021/01/23 09:13:03;;;;;;;1.08;1.08;;;;;;;;;;5051647;28;20204;-66
2021/01/23 09:15:29;;;;;;;0.60;0.60;;;;;;;;;;5049987;28;20188;-66
2021/01/23 09:17:55;;;;;;;1.23;1.23;;;;;;;;;;5051912;28;20737;-65
2021/01/23 09:20:21;;;;;;;0.85;0.85;;;;;;;;;;5051784;28;20179;-63
2021/01/23 09:22:47;;;;;;;0.60;0.60;;;;;;;;;;5051944;28;20726;-66
2021/01/23 09:25:13;;;;;;;0.88;0.88;;;;;;;;;;5052187;28;20207;-65
2021/01/23 09:27:39;;;;;;;0.40;0.40;;;;;;;;;;5052580;28;20198;-63
2021/01/23 09:30:05;;;;;;;1.53;1.53;;;;;;;;;;5052104;28;20172;-64
2021/01/23 09:32:31;;;;;;;0.80;0.80;;;;;;;;;;5052655;28;20449;-66
2021/01/23 09:34:57;;;;;;;0.50;0.50;;;;;;;;;;5052886;28;20168;-65
2021/01/23 09:37:25;;;;;;;0.95;0.95;;;;;;;;;;5053045;28;20176;-65
2021/01/23 09:39:52;;;;;;;0.57;0.57;;;;;;;;;;5052307;28;20196;-65
2021/01/23 09:42:18;;;;;;;0.90;0.90;;;;;;;;;;5052155;28;20199;-66
2021/01/23 09:44:44;;;;;;;0.65;0.65;;;;;;;;;;5052499;28;20201;-65
2021/01/23 09:47:13;;;;;;;1.13;1.13;;;;;;;;;;5052802;28;20168;-66
2021/01/23 09:49:40;;;;;;;0.85;0.85;;;;;;;;;;5052237;28;20168;-65
2021/01/23 09:52:06;;;;;;;0.50;0.50;;;;;;;;;;5051701;28;20200;-66
2021/01/23 09:54:32;;;;;;;1.23;1.08;;;;;;;;;;5053138;28;20218;-65
2021/01/23 09:56:58;;;;;;;1.45;1.35;;;;;;;;;;5052302;28;20204;-66
2021/01/23 09:59:24;;;;;;;0.70;0.70;;;;;;;;;;5052105;28;20324;-63
2021/01/23 10:01:51;;;;;;;0.70;0.70;;;;;;;;;;5051859;28;20399;-65
2021/01/23 10:04:17;;;;;;;0.75;0.75;;;;;;;;;;5051637;28;20168;-65
2021/01/23 10:06:43;;;;;;;1.05;1.05;;;;;;;;;;5051731;28;20318;-65
2021/01/23 10:09:09;;;;;;;1.83;1.73;;;;;;;;;;5051419;28;20733;-65
2021/01/23 10:11:35;;;;;;;1.33;1.33;;;;;;;;;;5051749;28;20218;-65
2021/01/23 10:14:01;;;;;;;0.80;0.80;;;;;;;;;;5050652;28;20904;-66
2021/01/23 10:16:27;;;;;;;0.80;0.80;;;;;;;;;;5050762;28;20501;-65
2021/01/23 10:18:53;;;;;;;1.67;1.60;;;;;;;;;;5050736;28;20226;-65
2021/01/23 10:21:19;;;;;;;1.63;1.63;;;;;;;;;;5051142;28;20173;-65
2021/01/23 10:26:22;;;;;;;5.47;3.25;;;;;;;;;;5065784;28;20215;-63
2021/01/23 10:28:47;;;;;;;1.13;1.05;;;;;;;;;;5074481;28;20189;-63
2021/01/23 10:31:13;;;;;;;1.13;1.13;;;;;;;;;;5069007;28;20273;-63
2021/01/23 10:33:39;;;;;;;0.60;0.60;;;;;;;;;;5068849;28;20503;-64
2021/01/23 10:36:06;;;;;;;1.03;1.03;;;;;;;;;;5090144;28;20202;-65
2021/01/23 10:38:32;;;;;;;0.85;0.85;;;;;;;;;;5090941;28;20868;-64
2021/01/23 10:40:58;;;;;;;0.50;0.50;;;;;;;;;;5091090;28;20679;-65
2021/01/23 10:43:24;;;;;;;0.68;0.68;;;;;;;;;;5095916;28;20264;-65
2021/01/23 10:45:50;;;;;;;1.00;0.95;;;;;;;;;;5111390;28;20186;-64
2021/01/23 10:48:16;;;;;;;0.83;0.83;;;;;;;;;;5102228;28;20178;-61
2021/01/23 10:50:43;;;;;;;0.77;0.77;;;;;;;;;;5096814;28;20408;-65
2021/01/23 10:53:09;;;;;;;0.60;0.60;;;;;;;;;;5097685;28;20167;-65
2021/01/23 10:55:35;;;;;;;0.70;0.70;;;;;;;;;;5096936;28;20321;-64
2021/01/23 10:58:01;;;;;;;0.90;0.90;;;;;;;;;;5092416;28;20484;-65
2021/01/23 11:00:27;;;;;;;1.80;0.95;;;;;;;;;;5087897;28;20411;-64
2021/01/23 11:02:53;;;;;;;0.60;0.60;;;;;;;;;;5087879;28;20175;-65
2021/01/23 11:05:19;;;;;;;1.27;0.90;;;;;;;;;;5089090;28;20425;-64
2021/01/23 11:07:45;;;;;;;0.50;0.50;;;;;;;;;;5089423;28;20901;-65
2021/01/23 11:10:12;;;;;;;1.73;1.60;;;;;;;;;;5090498;28;20546;-65
2021/01/23 11:12:38;;;;;;;0.85;0.85;;;;;;;;;;5089755;28;20178;-66
2021/01/23 11:15:04;;;;;;;0.70;0.70;;;;;;;;;;5090831;28;20186;-65
2021/01/23 11:17:30;;;;;;;0.60;0.60;;;;;;;;;;5092182;28;20203;-65
2021/01/23 11:19:56;;;;;;;1.47;1.17;;;;;;;;;;5092536;28;20232;-65
2021/01/23 11:22:23;;;;;;;1.00;1.00;;;;;;;;;;5091632;28;20463;-66
2021/01/23 11:24:49;;;;;;;0.60;0.60;;;;;;;;;;5091223;28;20448;-66
2021/01/23 11:27:15;;;;;;;0.80;0.80;;;;;;;;;;5090687;28;20182;-65
2021/01/23 11:29:41;;;;;;;1.63;1.23;;;;;;;;;;5091548;28;20414;-66
2021/01/23 11:32:07;;;;;;;0.90;0.90;;;;;;;;;;5092476;28;20726;-66
2021/01/23 11:34:33;;;;;;;1.17;1.07;;;;;;;;;;5094044;28;20200;-66
2021/01/23 11:36:59;;;;;;;0.40;0.40;;;;;;;;;;5092614;28;20418;-66
2021/01/23 11:39:25;;;;;;;1.17;1.13;;;;;;;;;;5090101;28;20471;-66
2021/01/23 11:41:51;;;;;;;0.77;0.77;;;;;;;;;;5092440;28;20660;-65
2021/01/23 11:44:17;;;;;;;0.70;0.70;;;;;;;;;;5091306;28;20201;-66
2021/01/23 11:46:43;;;;;;;0.80;0.80;;;;;;;;;;5091646;28;20858;-64
2021/01/23 11:49:09;;;;;;;0.70;0.70;;;;;;;;;;5094055;28;20202;-65
2021/01/23 11:51:35;;;;;;;0.55;0.55;;;;;;;;;;5110132;28;20416;-64
2021/01/23 11:54:01;;;;;;;3.63;1.35;;;;;;;;;;5113926;28;20629;-65
2021/01/23 11:56:27;;;;;;;1.58;1.15;;;;;;;;;;5114218;28;20551;-65
2021/01/23 11:58:53;;;;;;;0.80;0.80;;;;;;;;;;5113324;28;20205;-65
2021/01/23 12:01:20;;;;;;;1.02;1.02;;;;;;;;;;5112492;28;20177;-65
2021/01/23 12:03:46;;;;;;;0.93;0.93;;;;;;;;;;5112494;28;20158;-66
2021/01/23 12:06:12;;;;;;;0.63;0.63;;;;;;;;;;5114090;28;20180;-67
2021/01/23 12:08:38;;;;;;;0.70;0.70;;;;;;;;;;5114912;28;20414;-66
2021/01/23 12:11:04;;;;;;;0.85;0.85;;;;;;;;;;5090476;28;20729;-66
2021/01/23 12:13:30;;;;;;;0.82;0.75;;;;;;;;;;5094052;28;20178;-65
2021/01/23 12:15:56;;;;;;;0.50;0.50;;;;;;;;;;5094022;28;20204;-66
2021/01/23 12:18:22;;;;;;;0.60;0.60;;;;;;;;;;5094063;28;20977;-66
2021/01/23 12:20:48;;;;;;;1.23;1.13;;;;;;;;;;5093446;28;20176;-65
2021/01/23 12:23:16;;;;;;;1.00;0.80;;;;;;;;;;5093258;28;20399;-64
2021/01/23 12:25:42;;;;;;;0.70;0.70;;;;;;;;;;5093316;28;20207;-65
2021/01/23 12:28:08;;;;;;;0.50;0.50;;;;;;;;;;5093634;28;20259;-65
2021/01/23 12:30:34;;;;;;;0.83;0.83;;;;;;;;;;5093455;28;20254;-65
2021/01/23 12:33:00;;;;;;;0.75;0.75;;;;;;;;;;5093177;28;20407;-65
2021/01/23 12:35:26;;;;;;;1.27;1.27;;;;;;;;;;5093268;28;20304;-65
2021/01/23 12:37:58;;;;;;;0.73;0.73;;;;;;;;;;5093468;28;20422;-65
2021/01/23 12:40:24;;;;;;;0.70;0.70;;;;;;;;;;5093299;28;20213;-65
2021/01/23 12:42:50;;;;;;;0.63;0.63;;;;;;;;;;5093146;28;20229;-65
2021/01/23 12:45:16;;;;;;;1.13;1.02;;;;;;;;;;5091311;28;20300;-65
2021/01/23 12:47:42;;;;;;;0.52;0.52;;;;;;;;;;5091129;28;20182;-64
2021/01/23 12:50:08;;;;;;;0.60;0.60;;;;;;;;;;5091934;28;20171;-66
2021/01/23 12:52:35;;;;;;;0.65;0.65;;;;;;;;;;5092086;28;20177;-64
2021/01/23 12:55:01;;;;;;;0.65;0.65;;;;;;;;;;5092081;28;20184;-64
2021/01/23 12:57:27;;;;;;;1.33;0.98;;;;;;;;;;5091577;28;20688;-65
2021/01/23 12:59:53;;;;;;;0.70;0.70;;;;;;;;;;5091405;28;20196;-65
2021/01/23 13:02:19;;;;;;;0.68;0.63;;;;;;;;;;5092777;28;20406;-65
2021/01/23 13:04:45;;;;;;;1.10;0.93;;;;;;;;;;5091935;28;20638;-64
2021/01/23 13:07:11;;;;;;;0.97;0.97;;;;;;;;;;5090768;28;20406;-64
2021/01/23 13:09:37;;;;;;;0.67;0.67;;;;;;;;;;5090188;28;20415;-64
2021/01/23 13:12:03;;;;;;;0.80;0.70;;;;;;;;;;5089167;28;20414;-64
2021/01/23 13:14:29;;;;;;;1.25;1.25;;;;;;;;;;5090379;28;20233;-67
2021/01/23 13:16:56;;;;;;;1.08;1.08;;;;;;;;;;5088902;28;20653;-65
2021/01/23 13:19:25;;;;;;;0.60;0.60;;;;;;;;;;5089144;28;20208;-65
2021/01/23 13:21:51;;;;;;;1.50;1.10;;;;;;;;;;5089075;28;20173;-65
2021/01/23 13:24:17;;;;;;;1.02;1.02;;;;;;;;;;5088329;28;20242;-63
2021/01/23 13:26:43;;;;;;;0.60;0.60;;;;;;;;;;5089229;28;20200;-65
2021/01/23 13:29:08;;;;;;;1.27;1.17;;;;;;;;;;5088369;28;20412;-64
2021/01/23 13:31:34;;;;;;;0.83;0.67;;;;;;;;;;5089101;28;20945;-63
2021/01/23 13:34:00;;;;;;;1.80;1.47;;;;;;;;;;5088577;28;20460;-63
2021/01/23 13:36:27;;;;;;;1.30;1.02;;;;;;;;;;5088412;28;20449;-64
2021/01/23 13:38:52;;;;;;;1.15;1.10;;;;;;;;;;5087783;28;20201;-63
2021/01/23 13:41:19;;;;;;;1.10;1.10;;;;;;;;;;5088556;28;20656;-65
2021/01/23 13:43:45;;;;;;;0.68;0.68;;;;;;;;;;5088503;28;20478;-65
2021/01/23 13:46:11;;;;;;;1.48;1.30;;;;;;;;;;5088623;28;20564;-65
2021/01/23 13:48:37;;;;;;;0.80;0.80;;;;;;;;;;5087653;28;20217;-65
2021/01/23 13:51:03;;;;;;;0.93;0.93;;;;;;;;;;5088162;28;20253;-63
2021/01/23 13:53:29;;;;;;;1.63;1.52;;;;;;;;;;5088145;28;20411;-61
2021/01/23 13:55:55;;;;;;;1.02;1.02;;;;;;;;;;5067429;28;20618;-65
2021/01/23 13:58:23;;;;;;;0.73;0.73;;;;;;;;;;5068517;28;20198;-67
2021/01/23 14:00:50;;;;;;;0.73;0.73;;;;;;;;;;5067762;28;20552;-65
2021/01/23 14:03:16;;;;;;;0.50;0.50;;;;;;;;;;5068209;28;20264;-66
2021/01/23 14:05:42;;;;;;;1.50;0.80;;;;;;;;;;5068023;28;20240;-66
2021/01/23 14:08:08;;;;;;;0.60;0.60;;;;;;;;;;5068054;28;20460;-64
2021/01/23 14:10:34;;;;;;;0.60;0.60;;;;;;;;;;5067641;28;20181;-65
2021/01/23 14:13:00;;;;;;;0.82;0.82;;;;;;;;;;5067709;28;20946;-65
2021/01/23 14:15:26;;;;;;;1.38;0.98;;;;;;;;;;5067769;28;20205;-65
2021/01/23 14:17:53;;;;;;;0.88;0.88;;;;;;;;;;5068241;28;20173;-65
2021/01/23 14:20:20;;;;;;;0.50;0.50;;;;;;;;;;5068096;28;20173;-67
2021/01/23 14:22:46;;;;;;;0.98;0.98;;;;;;;;;;5067907;28;20184;-66
2021/01/23 14:25:12;;;;;;;0.60;0.60;;;;;;;;;;5068856;28;20675;-65
2021/01/23 14:27:38;;;;;;;0.60;0.60;;;;;;;;;;5069491;28;20168;-67
2021/01/23 14:30:05;;;;;;;0.53;0.53;;;;;;;;;;5068468;28;20179;-66
2021/01/23 14:32:31;;;;;;;0.50;0.50;;;;;;;;;;5067834;28;20433;-65
2021/01/23 14:34:57;;;;;;;0.70;0.70;;;;;;;;;;5067305;28;20245;-67
2021/01/23 14:37:23;;;;;;;0.70;0.70;;;;;;;;;;5068528;28;20186;-66
2021/01/23 14:39:49;;;;;;;1.30;1.20;;;;;;;;;;5067800;28;20453;-66
2021/01/23 14:42:16;;;;;;;1.38;1.33;;;;;;;;;;5068513;28;20176;-66
2021/01/23 14:44:43;;;;;;;1.27;1.17;;;;;;;;;;5068712;28;20610;-65